KFXE/FXE METAR and TAF weather

Enter ICAO airport designator
Station Type Date Time Source
KFXE METAR 2019/02/23 22:53 UTC NOAA

KFXE 232253Z 14010KT 10SM FEW021 OVC070 27/23 A3009 RMK AO2 SLP192 T02670228


Station Type Date Time Source
KFXE Decoded METAR 2019/02/23 22:53 UTC NOAA

FORT LAUDERDALE EXECUTIVE, FL, United States (KFXE) 26-12N 080-11W 6M
Feb 23, 2019 - 05:53 PM EST / 2019.02.23 2253 UTC
Wind: from the SE (140 degrees) at 12 MPH (10 KT):0
Visibility: 10 mile(s):0
Sky conditions: overcast
Temperature: 80.1 F (26.7 C)
Dew Point: 73.0 F (22.8 C)
Relative Humidity: 79%
Pressure (altimeter): 30.09 in. Hg (1018 hPa)
ob: KFXE 232253Z 14010KT 10SM FEW021 OVC070 27/23 A3009 RMK AO2 SLP192 T02670228
cycle: 23

Station Type Date Time Source
KFXE TAF 2019/02/23 21:03 UTC NOAA

TAF
AMD KFXE 232059Z 2321/2418 13015KT P6SM SCT025 SCT070
FM240000 15007KT P6SM FEW025 SCT250
FM241400 17013KT P6SM SCT025 SCT060


Example: see airport list